Time;durP1;ratioP1;P1;durP2;ratioP2;P2;SDS_P1;SDS_P2;PMS_P1;PMS_P2;Temp;Humidity;BMP_temperature;BMP_pressure;BME280_temperature;BME280_humidity;BME280_pressure;Samples;Min_cycle;Max_cycle;Signal;HPM_P1;HPM_P2
2023/08/23 00:02:27;;;;;;;16.23;11.88;;;;;;;;;;5058395;28;20048;-76
2023/08/23 00:04:58;;;;;;;15.18;11.63;;;;;;;;;;5058632;28;20044;-77
2023/08/23 00:07:29;;;;;;;13.13;11.23;;;;;;;;;;5057895;28;20063;-74
2023/08/23 00:10:00;;;;;;;13.55;11.20;;;;;;;;;;5058496;28;20052;-76
2023/08/23 00:12:29;;;;;;;12.55;10.00;;;;;;;;;;5058749;28;20403;-77
2023/08/23 00:15:01;;;;;;;16.58;12.30;;;;;;;;;;5058152;28;20597;-75
2023/08/23 00:17:33;;;;;;;16.20;12.05;;;;;;;;;;5058251;28;20056;-75
2023/08/23 00:20:04;;;;;;;16.65;11.52;;;;;;;;;;5058703;28;20526;-76
2023/08/23 00:22:35;;;;;;;17.15;12.40;;;;;;;;;;5059238;28;20475;-76
2023/08/23 00:25:07;;;;;;;15.75;11.05;;;;;;;;;;5059037;28;20040;-74
2023/08/23 00:27:38;;;;;;;17.95;11.85;;;;;;;;;;5058382;28;20525;-75
2023/08/23 00:30:08;;;;;;;14.10;12.60;;;;;;;;;;5058318;28;20422;-77
2023/08/23 00:32:39;;;;;;;17.33;13.13;;;;;;;;;;5057745;28;20040;-75
2023/08/23 00:35:10;;;;;;;16.48;11.98;;;;;;;;;;5058729;28;20411;-76
2023/08/23 00:37:42;;;;;;;17.63;12.38;;;;;;;;;;5058166;28;20056;-75
2023/08/23 00:40:13;;;;;;;20.52;11.85;;;;;;;;;;5056706;28;20059;-75
2023/08/23 00:42:43;;;;;;;16.85;12.43;;;;;;;;;;5056496;28;20064;-76
2023/08/23 00:45:14;;;;;;;13.68;11.02;;;;;;;;;;5058010;28;20053;-75
2023/08/23 00:47:44;;;;;;;16.80;11.27;;;;;;;;;;5059172;28;20600;-75
2023/08/23 00:50:16;;;;;;;14.13;10.65;;;;;;;;;;5060492;28;20396;-74
2023/08/23 00:52:46;;;;;;;11.45;10.13;;;;;;;;;;5062388;28;20048;-75
2023/08/23 00:55:23;;;;;;;16.08;11.82;;;;;;;;;;5061814;28;20049;-73
2023/08/23 00:57:54;;;;;;;14.95;11.45;;;;;;;;;;5061255;28;20075;-74
2023/08/23 01:00:27;;;;;;;13.45;10.63;;;;;;;;;;5060400;28;20049;-74
2023/08/23 01:02:59;;;;;;;15.15;11.30;;;;;;;;;;5061897;28;20048;-76
2023/08/23 01:05:54;;;;;;;18.08;11.93;;;;;;;;;;5061080;28;20044;-76
2023/08/23 01:08:42;;;;;;;13.73;11.02;;;;;;;;;;5061059;28;20052;-76
2023/08/23 01:11:55;;;;;;;15.13;11.68;;;;;;;;;;5061275;28;20511;-75
2023/08/23 01:14:48;;;;;;;15.35;11.82;;;;;;;;;;4978536;28;20046;-76
2023/08/23 01:17:21;;;;;;;16.00;12.23;;;;;;;;;;5060588;28;20052;-78
2023/08/23 01:19:55;;;;;;;14.88;11.90;;;;;;;;;;5061527;28;20048;-76
2023/08/23 01:22:29;;;;;;;16.92;12.77;;;;;;;;;;5059338;28;20819;-76
2023/08/23 01:25:00;;;;;;;17.25;11.85;;;;;;;;;;5060925;28;20055;-75
2023/08/23 01:27:32;;;;;;;17.30;12.35;;;;;;;;;;5061067;28;20060;-76
2023/08/23 01:30:15;;;;;;;15.52;11.43;;;;;;;;;;5061025;28;20056;-74
2023/08/23 01:32:58;;;;;;;14.52;11.27;;;;;;;;;;5060604;28;20045;-74
2023/08/23 01:35:50;;;;;;;16.15;11.73;;;;;;;;;;5060366;28;20040;-72
2023/08/23 01:38:22;;;;;;;14.80;11.60;;;;;;;;;;5061685;28;20048;-74
2023/08/23 01:40:55;;;;;;;15.05;12.00;;;;;;;;;;5059638;28;20052;-75
2023/08/23 01:43:26;;;;;;;15.98;11.65;;;;;;;;;;5060302;28;20052;-73
2023/08/23 01:45:57;;;;;;;13.90;11.82;;;;;;;;;;5060558;28;20044;-73
2023/08/23 01:48:29;;;;;;;13.48;11.60;;;;;;;;;;5058085;28;20056;-74
2023/08/23 01:50:59;;;;;;;16.02;11.90;;;;;;;;;;5056965;28;20040;-73
2023/08/23 01:53:30;;;;;;;17.67;12.82;;;;;;;;;;5058517;28;20697;-74
2023/08/23 01:56:01;;;;;;;14.93;11.48;;;;;;;;;;5056670;28;20052;-74
2023/08/23 01:58:33;;;;;;;19.60;11.93;;;;;;;;;;5057411;28;20048;-74
2023/08/23 02:01:03;;;;;;;37.30;15.15;;;;;;;;;;5058277;28;20052;-76
2023/08/23 02:03:34;;;;;;;21.92;13.88;;;;;;;;;;5065083;28;20048;-76
2023/08/23 02:06:04;;;;;;;17.90;13.32;;;;;;;;;;5061905;28;20033;-75
2023/08/23 02:08:36;;;;;;;20.58;13.93;;;;;;;;;;5060341;28;20049;-75
2023/08/23 02:11:06;;;;;;;20.50;14.57;;;;;;;;;;5060596;28;20049;-76
2023/08/23 02:13:37;;;;;;;26.30;14.98;;;;;;;;;;5058543;28;20052;-77
2023/08/23 02:16:08;;;;;;;22.10;14.30;;;;;;;;;;5060104;28;20135;-75
2023/08/23 02:18:38;;;;;;;20.50;14.85;;;;;;;;;;5060509;28;20048;-77
2023/08/23 02:21:09;;;;;;;18.05;13.73;;;;;;;;;;5060929;28;20052;-77
2023/08/23 02:23:41;;;;;;;22.13;14.07;;;;;;;;;;5060130;28;20064;-74
2023/08/23 02:26:13;;;;;;;23.00;14.80;;;;;;;;;;5060122;28;20530;-76
2023/08/23 02:28:46;;;;;;;20.40;14.38;;;;;;;;;;5058675;28;20052;-75
2023/08/23 02:31:16;;;;;;;17.17;12.55;;;;;;;;;;5060484;28;20048;-77
2023/08/23 02:33:47;;;;;;;17.98;13.57;;;;;;;;;;5059500;28;20140;-75
2023/08/23 02:36:17;;;;;;;24.08;13.20;;;;;;;;;;5060368;28;20594;-78
2023/08/23 02:38:47;;;;;;;14.05;9.52;;;;;;;;;;5060321;28;20048;-76
2023/08/23 02:41:17;;;;;;;14.10;10.20;;;;;;;;;;5059892;28;20532;-76
2023/08/23 02:43:48;;;;;;;14.43;9.85;;;;;;;;;;5059533;28;20055;-76
2023/08/23 02:46:19;;;;;;;14.30;11.68;;;;;;;;;;5059433;28;20053;-75
2023/08/23 02:48:50;;;;;;;14.77;10.32;;;;;;;;;;5060275;28;20515;-76
2023/08/23 02:51:20;;;;;;;16.55;11.02;;;;;;;;;;5060163;28;20059;-75
2023/08/23 02:53:50;;;;;;;13.68;10.52;;;;;;;;;;5042306;28;20059;-75
2023/08/23 02:56:20;;;;;;;16.10;11.80;;;;;;;;;;5060368;28;20048;-79
2023/08/23 02:58:52;;;;;;;20.63;11.82;;;;;;;;;;5059348;28;20060;-77
2023/08/23 03:01:25;;;;;;;27.20;11.88;;;;;;;;;;5057577;28;20067;-80
2023/08/23 03:03:56;;;;;;;26.33;10.25;;;;;;;;;;5061879;28;20044;-79
2023/08/23 03:06:26;;;;;;;27.65;10.13;;;;;;;;;;5062422;28;20044;-78
2023/08/23 03:08:56;;;;;;;16.50;9.40;;;;;;;;;;5061853;28;20423;-78
2023/08/23 03:11:27;;;;;;;14.30;9.45;;;;;;;;;;5061138;28;20048;-74
2023/08/23 03:13:58;;;;;;;12.13;8.05;;;;;;;;;;5060115;28;20056;-74
2023/08/23 03:16:28;;;;;;;12.48;8.55;;;;;;;;;;5044055;28;20059;-75
2023/08/23 03:18:58;;;;;;;14.02;9.43;;;;;;;;;;5059726;28;20064;-76
2023/08/23 03:21:31;;;;;;;11.13;7.40;;;;;;;;;;5059326;28;20044;-75
2023/08/23 03:24:04;;;;;;;14.15;8.73;;;;;;;;;;5060843;28;20052;-76
2023/08/23 03:26:34;;;;;;;12.20;7.35;;;;;;;;;;5060889;28;20052;-74
2023/08/23 03:29:04;;;;;;;11.93;7.45;;;;;;;;;;5061419;28;20511;-73
2023/08/23 03:31:36;;;;;;;13.77;7.10;;;;;;;;;;5062142;28;20066;-76
2023/08/23 03:34:09;;;;;;;11.98;6.82;;;;;;;;;;5060181;28;20049;-75
2023/08/23 03:36:39;;;;;;;10.25;6.85;;;;;;;;;;5060386;28;20063;-75
2023/08/23 03:39:09;;;;;;;11.80;6.55;;;;;;;;;;5061815;28;20040;-74
2023/08/23 03:41:40;;;;;;;10.77;6.65;;;;;;;;;;5061872;28;20043;-75
2023/08/23 03:44:12;;;;;;;14.98;7.10;;;;;;;;;;5059731;28;20071;-76
2023/08/23 03:46:44;;;;;;;14.07;7.75;;;;;;;;;;5059890;28;20554;-74
2023/08/23 03:49:15;;;;;;;13.48;6.63;;;;;;;;;;5059849;28;20515;-75
2023/08/23 03:51:46;;;;;;;13.50;7.75;;;;;;;;;;5061312;28;20495;-74
2023/08/23 03:54:21;;;;;;;11.18;7.20;;;;;;;;;;5060846;28;20087;-74
2023/08/23 03:56:52;;;;;;;10.77;6.80;;;;;;;;;;5060524;28;20056;-74
2023/08/23 03:59:29;;;;;;;16.92;8.38;;;;;;;;;;5060928;28;20541;-75
2023/08/23 04:01:59;;;;;;;14.63;7.03;;;;;;;;;;5062146;28;20037;-74
2023/08/23 04:04:37;;;;;;;14.07;6.93;;;;;;;;;;5061239;28;20049;-74
2023/08/23 04:07:09;;;;;;;10.65;5.85;;;;;;;;;;5060141;28;20048;-75
2023/08/23 04:09:40;;;;;;;9.07;6.53;;;;;;;;;;5061246;28;20052;-76
2023/08/23 04:12:10;;;;;;;10.90;6.10;;;;;;;;;;5060881;28;20056;-75
2023/08/23 04:14:40;;;;;;;17.92;7.57;;;;;;;;;;5061654;28;20044;-76
2023/08/23 04:17:11;;;;;;;9.98;6.15;;;;;;;;;;5060175;28;20056;-75
2023/08/23 04:19:41;;;;;;;11.32;7.10;;;;;;;;;;5059967;28;20048;-73
2023/08/23 04:22:11;;;;;;;10.80;7.10;;;;;;;;;;5062462;28;20056;-74
2023/08/23 04:24:42;;;;;;;15.05;7.55;;;;;;;;;;5063968;28;20056;-74
2023/08/23 04:27:13;;;;;;;17.33;7.32;;;;;;;;;;5064677;28;20422;-76
2023/08/23 04:29:44;;;;;;;11.32;6.97;;;;;;;;;;5065254;28;20048;-75
2023/08/23 04:32:20;;;;;;;13.27;6.82;;;;;;;;;;5063116;28;20056;-76
2023/08/23 04:34:51;;;;;;;12.35;7.45;;;;;;;;;;5063851;28;20060;-75
2023/08/23 04:37:22;;;;;;;16.30;7.25;;;;;;;;;;5064884;28;20060;-77
2023/08/23 04:39:54;;;;;;;16.67;8.10;;;;;;;;;;5063299;28;20185;-78
2023/08/23 04:42:24;;;;;;;17.10;7.80;;;;;;;;;;5062728;28;20060;-74
2023/08/23 04:44:54;;;;;;;13.95;7.93;;;;;;;;;;5064434;28;20055;-75
2023/08/23 04:47:24;;;;;;;16.92;8.18;;;;;;;;;;5047325;28;20594;-76
2023/08/23 04:49:55;;;;;;;16.38;8.05;;;;;;;;;;5063656;28;20044;-76
2023/08/23 04:52:28;;;;;;;16.15;8.75;;;;;;;;;;5064561;28;20151;-75
2023/08/23 04:54:59;;;;;;;13.65;7.65;;;;;;;;;;5065223;28;20044;-75
2023/08/23 04:57:29;;;;;;;15.18;8.23;;;;;;;;;;5062756;28;20771;-75
2023/08/23 04:59:59;;;;;;;13.40;7.78;;;;;;;;;;5062275;28;20055;-76
2023/08/23 05:02:30;;;;;;;18.50;8.55;;;;;;;;;;5062611;28;20062;-74
2023/08/23 05:05:03;;;;;;;11.93;7.78;;;;;;;;;;5063076;28;20110;-74
2023/08/23 05:07:37;;;;;;;13.63;8.73;;;;;;;;;;5062949;28;20049;-77
2023/08/23 05:10:09;;;;;;;16.77;8.20;;;;;;;;;;5062749;28;20535;-75
2023/08/23 05:12:39;;;;;;;13.90;8.65;;;;;;;;;;5064199;28;20415;-75
2023/08/23 05:15:10;;;;;;;13.15;8.35;;;;;;;;;;5064696;28;20483;-74
2023/08/23 05:17:41;;;;;;;16.92;9.35;;;;;;;;;;5062250;28;20052;-76
2023/08/23 05:20:11;;;;;;;15.55;8.30;;;;;;;;;;5063893;28;20040;-75
2023/08/23 05:22:42;;;;;;;14.75;8.60;;;;;;;;;;5063256;28;20052;-76
2023/08/23 05:25:12;;;;;;;17.63;9.07;;;;;;;;;;5062996;28;20051;-73
2023/08/23 05:27:42;;;;;;;15.35;8.60;;;;;;;;;;5063686;28;20060;-76
2023/08/23 05:30:14;;;;;;;16.55;9.23;;;;;;;;;;5061916;28;20049;-75
2023/08/23 05:32:45;;;;;;;18.42;8.60;;;;;;;;;;5062985;28;20479;-76
2023/08/23 05:35:15;;;;;;;21.15;8.93;;;;;;;;;;5063858;28;20056;-76
2023/08/23 05:37:46;;;;;;;12.82;8.07;;;;;;;;;;5061823;28;20492;-74
2023/08/23 05:40:17;;;;;;;12.95;8.25;;;;;;;;;;5063810;28;20052;-78
2023/08/23 05:42:48;;;;;;;16.58;8.77;;;;;;;;;;5063781;28;20048;-74
2023/08/23 05:45:18;;;;;;;11.50;7.97;;;;;;;;;;5061898;28;20052;-77
2023/08/23 05:47:49;;;;;;;14.38;8.60;;;;;;;;;;5061946;28;20052;-76
2023/08/23 05:50:20;;;;;;;18.40;8.55;;;;;;;;;;5063523;28;20362;-77
2023/08/23 05:52:51;;;;;;;17.27;8.80;;;;;;;;;;5062843;28;20063;-76
2023/08/23 05:55:21;;;;;;;15.38;7.72;;;;;;;;;;5063736;28;20424;-79
2023/08/23 05:57:52;;;;;;;15.70;8.10;;;;;;;;;;5062363;28;20514;-74
2023/08/23 06:00:23;;;;;;;15.52;8.10;;;;;;;;;;5064212;28;20045;-75
2023/08/23 06:02:54;;;;;;;18.13;8.13;;;;;;;;;;5063342;28;20049;-75
2023/08/23 06:05:24;;;;;;;14.60;7.60;;;;;;;;;;5063386;28;20537;-78
2023/08/23 06:07:56;;;;;;;16.67;7.97;;;;;;;;;;5063227;28;20495;-77
2023/08/23 06:10:26;;;;;;;19.75;8.68;;;;;;;;;;5062682;28;20051;-74
2023/08/23 06:12:56;;;;;;;16.13;9.30;;;;;;;;;;5063000;28;20056;-76
2023/08/23 06:15:26;;;;;;;12.50;8.90;;;;;;;;;;5063105;28;20082;-75
2023/08/23 06:17:57;;;;;;;21.83;8.02;;;;;;;;;;5062852;28;20053;-75
2023/08/23 06:20:28;;;;;;;12.63;8.68;;;;;;;;;;5063618;28;20515;-76
2023/08/23 06:22:59;;;;;;;14.52;7.40;;;;;;;;;;5062640;28;20526;-77
2023/08/23 06:25:29;;;;;;;17.58;7.65;;;;;;;;;;5063218;28;20051;-73
2023/08/23 06:27:59;;;;;;;16.80;8.82;;;;;;;;;;5063450;28;20051;-74
2023/08/23 06:30:31;;;;;;;17.55;9.20;;;;;;;;;;5062591;28;20484;-78
2023/08/23 06:33:01;;;;;;;15.35;8.52;;;;;;;;;;5062629;28;20049;-76
2023/08/23 06:35:32;;;;;;;15.32;8.98;;;;;;;;;;5062422;28;20037;-76
2023/08/23 06:38:02;;;;;;;14.77;9.40;;;;;;;;;;5063331;28;20503;-75
2023/08/23 06:40:33;;;;;;;14.65;8.23;;;;;;;;;;5061423;28;20056;-77
2023/08/23 06:43:05;;;;;;;22.63;9.75;;;;;;;;;;5062982;28;20778;-76
2023/08/23 06:45:36;;;;;;;22.05;9.07;;;;;;;;;;5061769;28;20059;-75
2023/08/23 06:48:06;;;;;;;19.90;9.38;;;;;;;;;;5062956;28;20048;-75
2023/08/23 06:50:38;;;;;;;16.30;8.90;;;;;;;;;;5062651;28;20068;-76
2023/08/23 06:53:08;;;;;;;12.93;8.40;;;;;;;;;;5061968;28;20071;-75
2023/08/23 06:55:40;;;;;;;15.85;8.45;;;;;;;;;;5062071;28;20048;-76
2023/08/23 06:58:11;;;;;;;23.63;8.02;;;;;;;;;;5061756;28;20438;-75
2023/08/23 07:00:42;;;;;;;17.75;10.13;;;;;;;;;;5062498;28;20060;-76
2023/08/23 07:03:13;;;;;;;18.40;8.35;;;;;;;;;;5062160;28;20048;-74
2023/08/23 07:05:45;;;;;;;17.17;8.20;;;;;;;;;;5061866;28;20052;-76
2023/08/23 07:08:15;;;;;;;14.73;7.47;;;;;;;;;;5060479;28;20507;-78
2023/08/23 07:10:46;;;;;;;13.30;8.35;;;;;;;;;;5061807;28;20416;-75
2023/08/23 07:13:16;;;;;;;18.65;8.25;;;;;;;;;;5062716;28;20817;-77
2023/08/23 07:15:46;;;;;;;20.80;9.63;;;;;;;;;;5061970;28;20044;-76
2023/08/23 07:18:16;;;;;;;20.42;9.15;;;;;;;;;;5062390;28;20044;-75
2023/08/23 07:20:46;;;;;;;20.05;9.68;;;;;;;;;;5061814;28;20079;-75
2023/08/23 07:23:17;;;;;;;18.25;9.50;;;;;;;;;;5061546;28;20056;-73
2023/08/23 07:25:48;;;;;;;20.27;8.57;;;;;;;;;;5061910;28;20052;-74
2023/08/23 07:28:19;;;;;;;17.98;10.75;;;;;;;;;;5061285;28;20606;-73
2023/08/23 07:30:50;;;;;;;24.17;9.98;;;;;;;;;;5061962;28;20048;-75
2023/08/23 07:33:21;;;;;;;18.85;10.55;;;;;;;;;;5062061;28;20049;-75
2023/08/23 07:35:57;;;;;;;17.83;8.43;;;;;;;;;;5061480;28;20043;-73
2023/08/23 07:38:28;;;;;;;20.45;9.13;;;;;;;;;;5061784;28;20067;-73
2023/08/23 07:41:03;;;;;;;23.77;10.65;;;;;;;;;;5060074;28;20064;-76
2023/08/23 07:43:34;;;;;;;21.40;9.65;;;;;;;;;;5061798;28;20037;-74
2023/08/23 07:46:07;;;;;;;23.25;8.63;;;;;;;;;;5060808;28;20056;-74
2023/08/23 07:48:40;;;;;;;20.75;9.55;;;;;;;;;;5062856;28;20052;-74
2023/08/23 07:51:10;;;;;;;23.83;10.20;;;;;;;;;;5062519;28;20045;-76
2023/08/23 07:53:43;;;;;;;15.52;8.70;;;;;;;;;;5061730;28;20404;-77
2023/08/23 07:56:14;;;;;;;23.02;8.82;;;;;;;;;;5062487;28;20044;-74
2023/08/23 07:58:44;;;;;;;30.70;9.57;;;;;;;;;;5065121;28;20503;-75
2023/08/23 08:01:14;;;;;;;18.05;9.23;;;;;;;;;;5065608;28;20507;-75
2023/08/23 08:03:44;;;;;;;21.33;9.90;;;;;;;;;;5065798;28;20062;-75
2023/08/23 08:06:16;;;;;;;21.63;9.43;;;;;;;;;;5066400;28;20052;-75
2023/08/23 08:08:47;;;;;;;26.27;8.63;;;;;;;;;;5065690;28;20051;-75
2023/08/23 08:11:19;;;;;;;34.15;10.60;;;;;;;;;;5064889;28;20434;-75
2023/08/23 08:13:49;;;;;;;19.88;8.98;;;;;;;;;;5065571;28;20054;-75
2023/08/23 08:16:20;;;;;;;23.48;8.75;;;;;;;;;;5065891;28;20056;-74
2023/08/23 08:18:52;;;;;;;22.35;9.05;;;;;;;;;;5065601;28;20056;-73
2023/08/23 08:21:22;;;;;;;16.75;8.88;;;;;;;;;;5064740;28;20515;-75
2023/08/23 08:23:53;;;;;;;22.20;8.55;;;;;;;;;;5064894;28;20530;-74
2023/08/23 08:26:24;;;;;;;17.90;7.40;;;;;;;;;;5065164;28;20056;-74
2023/08/23 08:28:54;;;;;;;20.75;8.25;;;;;;;;;;5065534;28;20049;-74
2023/08/23 08:31:25;;;;;;;20.02;8.05;;;;;;;;;;5065017;28;20060;-76
2023/08/23 08:33:59;;;;;;;13.50;7.47;;;;;;;;;;5064106;28;20082;-76
2023/08/23 08:36:30;;;;;;;18.27;6.90;;;;;;;;;;5064867;28;20048;-75
2023/08/23 08:39:01;;;;;;;15.43;6.18;;;;;;;;;;5064786;28;20079;-75
2023/08/23 08:41:32;;;;;;;17.95;6.53;;;;;;;;;;5063427;28;20056;-74
2023/08/23 08:44:02;;;;;;;16.63;6.95;;;;;;;;;;5064673;28;20513;-74
2023/08/23 08:46:33;;;;;;;17.05;6.82;;;;;;;;;;5064473;28;20107;-76
2023/08/23 08:49:04;;;;;;;15.50;6.82;;;;;;;;;;5065408;28;20055;-75
2023/08/23 08:51:37;;;;;;;21.20;6.70;;;;;;;;;;5064915;28;20053;-75
2023/08/23 08:54:09;;;;;;;16.52;6.43;;;;;;;;;;5065154;28;20834;-75
2023/08/23 08:56:40;;;;;;;10.77;5.93;;;;;;;;;;5064633;28;20155;-75
2023/08/23 08:59:11;;;;;;;16.42;6.25;;;;;;;;;;5064600;28;20053;-75
2023/08/23 09:01:44;;;;;;;15.38;5.57;;;;;;;;;;5064243;28;20147;-75
2023/08/23 09:04:15;;;;;;;12.55;6.13;;;;;;;;;;5064496;28;20412;-74
2023/08/23 09:06:48;;;;;;;19.85;5.80;;;;;;;;;;5064362;28;20055;-77
2023/08/23 09:09:20;;;;;;;13.93;5.80;;;;;;;;;;5063006;28;20055;-73
2023/08/23 09:11:50;;;;;;;14.85;6.28;;;;;;;;;;5064182;28;20052;-76
2023/08/23 09:14:21;;;;;;;17.77;5.47;;;;;;;;;;5062356;28;20045;-75
2023/08/23 09:16:53;;;;;;;10.85;4.28;;;;;;;;;;5064277;28;20051;-75
2023/08/23 09:19:25;;;;;;;11.85;4.72;;;;;;;;;;5064610;28;20044;-76
2023/08/23 09:21:56;;;;;;;7.88;4.28;;;;;;;;;;5063474;28;20067;-76
2023/08/23 09:24:25;;;;;;;11.70;4.18;;;;;;;;;;5064536;28;20047;-74
2023/08/23 09:26:56;;;;;;;17.02;5.15;;;;;;;;;;5062809;28;20044;-74
2023/08/23 09:29:27;;;;;;;11.85;4.07;;;;;;;;;;5064413;28;20534;-74
2023/08/23 09:32:05;;;;;;;8.63;4.63;;;;;;;;;;5062151;28;20617;-74
2023/08/23 09:34:35;;;;;;;11.93;3.50;;;;;;;;;;5063431;28;20054;-76
2023/08/23 09:37:09;;;;;;;13.00;3.83;;;;;;;;;;5063321;28;20059;-75
2023/08/23 09:39:40;;;;;;;10.43;3.55;;;;;;;;;;5064265;28;20055;-74
2023/08/23 09:42:14;;;;;;;12.50;4.43;;;;;;;;;;5064055;28;20052;-73
2023/08/23 09:44:46;;;;;;;8.65;3.65;;;;;;;;;;5063635;28;20613;-74
2023/08/23 09:47:22;;;;;;;6.50;3.65;;;;;;;;;;5064215;28;20040;-75
2023/08/23 09:49:53;;;;;;;8.60;4.22;;;;;;;;;;5064276;28;20045;-77
2023/08/23 09:52:29;;;;;;;9.88;3.70;;;;;;;;;;5061564;28;20530;-75
2023/08/23 09:55:04;;;;;;;10.85;3.97;;;;;;;;;;5063498;28;20602;-76
2023/08/23 09:57:44;;;;;;;6.70;3.40;;;;;;;;;;5062961;28;20414;-75
2023/08/23 10:00:16;;;;;;;14.68;3.30;;;;;;;;;;5063107;28;20049;-76
2023/08/23 10:02:47;;;;;;;18.75;4.25;;;;;;;;;;5063793;28;20048;-75
2023/08/23 10:05:19;;;;;;;9.48;3.38;;;;;;;;;;5063127;28;20820;-78
2023/08/23 10:07:57;;;;;;;13.15;3.97;;;;;;;;;;5062894;28;20468;-73
2023/08/23 10:10:31;;;;;;;9.82;4.00;;;;;;;;;;5062829;28;20049;-78
2023/08/23 10:13:04;;;;;;;;;;;;;;;;;;5076345;28;20449;-74
2023/08/23 10:15:38;;;;;;;12.30;3.40;;;;;;;;;;5083134;28;19920;-74
2023/08/23 10:18:12;;;;;;;10.00;5.68;;;;;;;;;;5083014;28;20058;-75
2023/08/23 10:20:43;;;;;;;12.35;4.32;;;;;;;;;;5082969;28;20496;-77
2023/08/23 10:23:16;;;;;;;14.57;4.30;;;;;;;;;;5081275;28;20067;-76
2023/08/23 10:25:47;;;;;;;15.70;6.07;;;;;;;;;;5082401;28;20052;-74
2023/08/23 10:28:20;;;;;;;19.48;5.30;;;;;;;;;;5082821;28;20055;-75
2023/08/23 10:30:54;;;;;;;14.90;5.30;;;;;;;;;;5082019;28;20084;-76
2023/08/23 10:33:40;;;;;;;25.75;5.55;;;;;;;;;;5082999;28;20388;-76
2023/08/23 10:36:21;;;;;;;12.13;4.63;;;;;;;;;;5081159;28;20075;-76
2023/08/23 10:38:56;;;;;;;24.73;5.28;;;;;;;;;;5081475;28;20044;-81
2023/08/23 10:41:26;;;;;;;12.18;4.05;;;;;;;;;;5080385;28;20060;-75
2023/08/23 10:43:59;;;;;;;17.85;5.75;;;;;;;;;;5082373;28;20048;-76
2023/08/23 10:46:30;;;;;;;12.55;5.50;;;;;;;;;;5082873;28;20055;-76
2023/08/23 10:49:09;;;;;;;11.93;4.15;;;;;;;;;;5082661;28;20044;-76
2023/08/23 10:51:41;;;;;;;16.75;5.03;;;;;;;;;;5080479;28;20098;-77
2023/08/23 10:54:16;;;;;;;28.70;5.35;;;;;;;;;;5082421;28;20044;-74
2023/08/23 10:56:47;;;;;;;12.98;5.20;;;;;;;;;;5081494;28;20608;-73
2023/08/23 10:59:18;;;;;;;14.55;5.18;;;;;;;;;;5082599;28;20040;-75
2023/08/23 11:01:51;;;;;;;21.42;6.35;;;;;;;;;;5082116;28;20056;-74
2023/08/23 11:04:22;;;;;;;15.88;5.57;;;;;;;;;;5082477;28;20047;-74
2023/08/23 11:06:52;;;;;;;13.30;5.20;;;;;;;;;;5081617;28;20522;-75
2023/08/23 11:09:23;;;;;;;16.40;4.75;;;;;;;;;;5082795;28;20048;-77
2023/08/23 11:11:54;;;;;;;13.10;5.82;;;;;;;;;;5081532;28;20534;-76
2023/08/23 11:14:24;;;;;;;13.20;5.35;;;;;;;;;;5085118;28;20048;-75
2023/08/23 11:16:54;;;;;;;11.35;4.85;;;;;;;;;;5082164;28;20051;-74
2023/08/23 11:19:25;;;;;;;10.90;5.18;;;;;;;;;;5082185;28;20044;-74
2023/08/23 11:21:57;;;;;;;16.80;5.15;;;;;;;;;;5081833;28;20052;-74
2023/08/23 11:24:27;;;;;;;8.13;4.10;;;;;;;;;;5082683;28;20044;-74
2023/08/23 11:26:57;;;;;;;16.77;5.05;;;;;;;;;;5082504;28;20048;-75
2023/08/23 11:29:27;;;;;;;12.27;4.13;;;;;;;;;;5081702;28;20051;-75
2023/08/23 11:31:58;;;;;;;9.93;4.28;;;;;;;;;;5081376;28;20051;-74
2023/08/23 11:34:28;;;;;;;10.02;3.85;;;;;;;;;;5082295;28;20540;-73
2023/08/23 11:36:59;;;;;;;10.68;3.58;;;;;;;;;;5082336;28;20059;-75
2023/08/23 11:39:30;;;;;;;10.48;3.10;;;;;;;;;;5081856;28;20759;-75
2023/08/23 11:42:01;;;;;;;7.70;2.42;;;;;;;;;;5082114;28;20090;-75
2023/08/23 11:44:32;;;;;;;11.07;2.40;;;;;;;;;;5081851;28;20081;-75
2023/08/23 11:47:03;;;;;;;8.52;2.60;;;;;;;;;;5081934;28;20055;-79
2023/08/23 11:49:34;;;;;;;6.07;2.05;;;;;;;;;;5081527;28;20044;-74
2023/08/23 11:52:04;;;;;;;2.80;1.25;;;;;;;;;;5080904;28;20548;-75
2023/08/23 11:54:42;;;;;;;5.00;1.55;;;;;;;;;;5080269;28;20047;-76
2023/08/23 11:57:15;;;;;;;9.88;2.10;;;;;;;;;;5081508;28;20051;-75
2023/08/23 11:59:46;;;;;;;7.15;2.17;;;;;;;;;;5081554;28;20407;-75
2023/08/23 12:02:17;;;;;;;5.13;1.70;;;;;;;;;;5080735;28;20048;-75
2023/08/23 12:04:48;;;;;;;4.40;1.95;;;;;;;;;;5081952;28;20047;-76
2023/08/23 12:07:46;;;;;;;6.95;1.63;;;;;;;;;;5079619;28;20503;-77
2023/08/23 12:10:17;;;;;;;4.93;1.80;;;;;;;;;;5080901;28;20114;-75
2023/08/23 12:12:47;;;;;;;2.33;1.13;;;;;;;;;;5080806;28;20099;-77
2023/08/23 12:15:20;;;;;;;6.03;1.85;;;;;;;;;;5080056;28;20424;-75
2023/08/23 12:17:53;;;;;;;8.55;1.40;;;;;;;;;;5079476;28;20051;-75
2023/08/23 12:20:24;;;;;;;7.18;1.58;;;;;;;;;;5079569;28;20052;-75
2023/08/23 12:22:55;;;;;;;4.93;1.30;;;;;;;;;;5080606;28;20066;-75
2023/08/23 12:25:26;;;;;;;9.77;1.63;;;;;;;;;;5063006;28;20048;-76
2023/08/23 12:27:57;;;;;;;4.00;1.60;;;;;;;;;;5063251;28;20048;-75
2023/08/23 12:30:28;;;;;;;5.25;1.20;;;;;;;;;;5081061;28;20059;-75
2023/08/23 12:32:57;;;;;;;4.13;1.20;;;;;;;;;;5081104;28;20055;-75
2023/08/23 12:35:29;;;;;;;3.00;1.20;;;;;;;;;;5080764;28;20055;-74
2023/08/23 12:38:00;;;;;;;3.42;1.13;;;;;;;;;;5080903;28;20044;-76
2023/08/23 12:40:31;;;;;;;9.27;2.13;;;;;;;;;;5081493;28;20052;-76
2023/08/23 12:43:01;;;;;;;9.70;2.20;;;;;;;;;;5082736;28;20054;-75
2023/08/23 12:45:32;;;;;;;6.38;3.47;;;;;;;;;;5085006;28;20054;-75
2023/08/23 12:48:02;;;;;;;3.90;1.75;;;;;;;;;;5084468;28;20048;-76
2023/08/23 12:50:33;;;;;;;7.97;1.60;;;;;;;;;;5084713;28;20051;-75
2023/08/23 12:53:03;;;;;;;2.72;1.58;;;;;;;;;;5084173;28;20861;-74
2023/08/23 12:55:34;;;;;;;7.18;1.75;;;;;;;;;;5083156;28;20048;-75
2023/08/23 12:58:05;;;;;;;3.65;1.70;;;;;;;;;;5082529;28;20079;-77
2023/08/23 13:00:35;;;;;;;4.70;1.88;;;;;;;;;;5083253;28;20048;-75
2023/08/23 13:03:05;;;;;;;5.68;1.80;;;;;;;;;;5084522;28;20048;-76
2023/08/23 13:05:35;;;;;;;5.63;1.80;;;;;;;;;;5084226;28;20055;-75
2023/08/23 13:08:06;;;;;;;5.03;2.05;;;;;;;;;;5084958;28;20758;-75
2023/08/23 13:10:38;;;;;;;5.03;2.00;;;;;;;;;;5084857;28;20526;-75
2023/08/23 13:13:08;;;;;;;6.60;1.80;;;;;;;;;;5083846;28;20051;-74
2023/08/23 13:15:38;;;;;;;4.95;2.05;;;;;;;;;;5084536;28;20409;-76
2023/08/23 13:18:09;;;;;;;7.85;1.88;;;;;;;;;;5082704;28;20052;-74
2023/08/23 13:20:40;;;;;;;4.10;1.77;;;;;;;;;;5082501;28;20055;-74
2023/08/23 13:23:11;;;;;;;6.45;2.00;;;;;;;;;;5084725;28;20411;-75
2023/08/23 13:25:41;;;;;;;6.65;1.98;;;;;;;;;;5083900;28;20055;-75
2023/08/23 13:28:11;;;;;;;5.10;1.73;;;;;;;;;;5084384;28;20059;-74
2023/08/23 13:30:42;;;;;;;5.32;1.80;;;;;;;;;;5083869;28;20040;-75
2023/08/23 13:33:13;;;;;;;4.00;1.83;;;;;;;;;;5084228;28;20521;-76
2023/08/23 13:35:45;;;;;;;5.07;2.05;;;;;;;;;;5083757;28;20044;-75
2023/08/23 13:38:16;;;;;;;4.05;1.90;;;;;;;;;;5083351;28;20047;-75
2023/08/23 13:40:46;;;;;;;4.78;2.08;;;;;;;;;;5083962;28;20052;-75
2023/08/23 13:43:16;;;;;;;3.50;1.70;;;;;;;;;;5083463;28;20491;-77
2023/08/23 13:45:48;;;;;;;7.57;1.77;;;;;;;;;;5083747;28;20052;-75
2023/08/23 13:48:19;;;;;;;6.10;2.40;;;;;;;;;;5084167;28;20154;-75
2023/08/23 13:50:49;;;;;;;6.75;2.45;;;;;;;;;;5082861;28;20055;-77
2023/08/23 13:53:19;;;;;;;5.22;2.28;;;;;;;;;;5083237;28;20051;-77
2023/08/23 13:55:50;;;;;;;5.75;2.13;;;;;;;;;;5083747;28;20055;-75
2023/08/23 13:58:23;;;;;;;4.40;1.92;;;;;;;;;;5084084;28;20051;-75
2023/08/23 14:00:53;;;;;;;6.95;2.80;;;;;;;;;;5083542;28;20059;-75
2023/08/23 14:03:24;;;;;;;5.90;2.38;;;;;;;;;;5083235;28;20067;-75
2023/08/23 14:06:02;;;;;;;7.65;2.92;;;;;;;;;;5083658;28;20613;-75
2023/08/23 14:08:33;;;;;;;5.97;2.45;;;;;;;;;;5083436;28;20059;-80
2023/08/23 14:11:04;;;;;;;5.03;2.17;;;;;;;;;;5083107;28;20066;-75
2023/08/23 14:13:34;;;;;;;6.47;2.50;;;;;;;;;;5082553;28;20040;-75
2023/08/23 14:16:04;;;;;;;8.75;2.80;;;;;;;;;;5083277;28;20042;-84
2023/08/23 14:18:35;;;;;;;4.93;2.40;;;;;;;;;;5082890;28;20040;-75
2023/08/23 14:21:08;;;;;;;9.63;3.97;;;;;;;;;;5083427;28;20051;-75
2023/08/23 14:23:40;;;;;;;8.00;2.42;;;;;;;;;;5082843;28;20395;-74
2023/08/23 14:26:10;;;;;;;5.97;2.45;;;;;;;;;;5081701;28;20040;-76
2023/08/23 14:28:41;;;;;;;7.07;2.40;;;;;;;;;;5082919;28;20036;-76
2023/08/23 14:31:12;;;;;;;6.10;2.20;;;;;;;;;;5081836;28;20052;-74
2023/08/23 14:33:42;;;;;;;6.72;2.55;;;;;;;;;;5083744;28;20047;-75
2023/08/23 14:36:14;;;;;;;3.13;1.35;;;;;;;;;;5083130;28;20407;-75
2023/08/23 14:38:44;;;;;;;2.45;1.65;;;;;;;;;;5082430;28;20951;-75
2023/08/23 14:41:16;;;;;;;4.15;1.35;;;;;;;;;;5082364;28;20059;-75
2023/08/23 14:43:46;;;;;;;5.25;1.40;;;;;;;;;;5080363;28;20055;-75
2023/08/23 14:46:17;;;;;;;3.58;1.30;;;;;;;;;;5082418;28;20044;-75
2023/08/23 14:48:48;;;;;;;2.72;1.35;;;;;;;;;;5082423;28;20415;-75
2023/08/23 14:51:18;;;;;;;3.22;1.30;;;;;;;;;;5082581;28;20055;-81
2023/08/23 14:53:48;;;;;;;4.15;1.08;;;;;;;;;;5083076;28;20054;-76
2023/08/23 14:56:19;;;;;;;1.23;1.00;;;;;;;;;;5082302;28;20043;-75
2023/08/23 14:58:50;;;;;;;3.08;1.13;;;;;;;;;;5081694;28;20058;-75